Time;durP1;ratioP1;P1;durP2;ratioP2;P2;SDS_P1;SDS_P2;PMS_P1;PMS_P2;Temp;Humidity;BMP_temperature;BMP_pressure;BME280_temperature;BME280_humidity;BME280_pressure;Samples;Min_cycle;Max_cycle;Signal;HPM_P1;HPM_P2
2022/01/24 00:00:37;;;;;;;18.67;9.52;;;;;;;1.23;89.51;100089.06;2631617;28;20098;-79
2022/01/24 00:01:57;;;;;;;18.77;8.93;;;;;;;1.23;89.50;100086.50;2630544;28;20040;-79
2022/01/24 00:03:12;;;;;;;21.88;9.32;;;;;;;1.24;89.60;100096.00;2631097;28;20150;-79
2022/01/24 00:04:28;;;;;;;19.55;9.07;;;;;;;1.24;89.44;100090.81;2630140;28;20051;-82
2022/01/24 00:05:44;;;;;;;21.08;9.32;;;;;;;1.23;89.97;100099.41;2629954;28;20472;-79
2022/01/24 00:07:00;;;;;;;21.23;9.52;;;;;;;1.23;89.81;100096.81;2630039;28;20058;-79
2022/01/24 00:08:16;;;;;;;22.70;10.07;;;;;;;1.23;89.62;100103.69;2630441;28;20383;-79
2022/01/24 00:09:32;;;;;;;21.30;10.38;;;;;;;1.22;89.62;100092.47;2629738;28;20071;-79
2022/01/24 00:10:50;;;;;;;21.10;9.68;;;;;;;1.22;89.67;100097.63;2630976;28;20047;-78
2022/01/24 00:12:16;;;;;;;22.00;10.15;;;;;;;1.24;89.63;100097.72;2629464;28;20082;-78
2022/01/24 00:15:52;;;;;;;24.02;10.75;;;;;;;1.23;89.71;100099.41;2631178;28;20055;-78
2022/01/24 00:16:34;;;;;;;20.55;9.82;;;;;;;1.24;89.80;100093.41;2613804;28;20494;-79
2022/01/24 00:18:03;;;;;;;21.88;9.73;;;;;;;1.25;89.36;100096.88;2630174;28;20546;-79
2022/01/24 00:26:51;;;;;;;19.65;9.75;;;;;;;1.29;89.61;100095.31;2631833;28;20747;-78
2022/01/24 00:28:06;;;;;;;19.30;10.18;;;;;;;1.26;89.76;100084.06;2630622;28;20044;-78
2022/01/24 00:29:24;;;;;;;25.25;11.10;;;;;;;1.28;89.79;100084.09;2629314;28;20040;-79
2022/01/24 00:30:39;;;;;;;17.35;9.05;;;;;;;1.31;89.71;100085.91;2629505;28;20040;-81
2022/01/24 00:31:56;;;;;;;19.88;9.43;;;;;;;1.32;89.51;100087.66;2630994;28;20510;-78
2022/01/24 00:33:11;;;;;;;19.13;10.20;;;;;;;1.30;89.30;100079.00;2631124;28;20035;-78
2022/01/24 00:34:27;;;;;;;22.58;9.85;;;;;;;1.29;89.44;100074.66;2631204;28;20425;-79
2022/01/24 00:35:42;;;;;;;21.20;9.80;;;;;;;1.27;89.57;100075.47;2629741;28;20430;-79
2022/01/24 00:36:58;;;;;;;22.02;9.40;;;;;;;1.27;89.70;100078.06;2630324;28;20139;-78
2022/01/24 00:38:14;;;;;;;17.27;8.70;;;;;;;1.28;89.76;100073.75;2630081;28;20055;-81
2022/01/24 00:39:30;;;;;;;18.35;9.95;;;;;;;1.28;89.83;100076.34;2619294;28;20072;-79
2022/01/24 00:40:48;;;;;;;21.52;10.35;;;;;;;1.29;89.84;100072.06;2625081;28;21029;-83
2022/01/24 00:47:24;;;;;;;29.65;14.10;;;;;;;1.45;89.14;100071.78;2628432;28;20926;-82
2022/01/24 00:54:00;;;;;;;27.02;11.70;;;;;;;1.32;89.15;100078.19;2629952;28;20100;-83
2022/01/24 00:54:42;;;;;;;18.30;9.27;;;;;;;1.27;89.48;100080.66;2617743;28;20056;-78
2022/01/24 00:55:58;;;;;;;;;;;;;;;1.24;89.53;100062.44;2631095;28;20048;-78
2022/01/24 00:57:14;;;;;;;19.13;8.50;;;;;;;1.22;89.62;100071.84;2629311;28;19924;-78
2022/01/24 00:58:30;;;;;;;20.85;9.15;;;;;;;1.21;89.51;100066.66;2629811;28;20102;-78
2022/01/24 00:59:47;;;;;;;20.27;9.38;;;;;;;1.19;89.59;100065.69;2630240;28;20040;-78
2022/01/24 01:01:04;;;;;;;17.13;9.07;;;;;;;1.17;89.80;100060.47;2629962;28;20055;-79
2022/01/24 01:02:20;;;;;;;19.63;9.55;;;;;;;1.20;89.85;100062.31;2628531;28;20054;-78
2022/01/24 01:03:35;;;;;;;19.63;10.02;;;;;;;1.31;89.63;100060.97;2624441;28;20057;-78
2022/01/24 01:06:08;;;;;;;27.52;12.88;;;;;;;1.33;89.15;100058.44;2630823;28;20438;-78
2022/01/24 01:18:22;;;;;;;21.83;10.85;;;;;;;1.41;88.96;100045.00;2629298;28;20070;-78
2022/01/24 01:19:39;;;;;;;22.40;10.95;;;;;;;1.41;88.79;100039.81;2629348;28;20044;-79
2022/01/24 01:22:25;;;;;;;21.85;11.13;;;;;;;1.40;88.81;100034.63;2629507;28;20044;-79
2022/01/24 01:23:46;;;;;;;24.35;12.07;;;;;;;1.37;88.78;100039.66;2629200;28;20044;-78
2022/01/24 01:25:02;;;;;;;24.20;10.85;;;;;;;1.34;88.90;100031.81;2629106;28;20039;-82
2022/01/24 01:26:28;;;;;;;21.75;11.07;;;;;;;1.33;88.97;100035.22;2629953;28;20051;-78
2022/01/24 01:27:46;;;;;;;22.92;10.90;;;;;;;1.28;89.14;100032.47;2629642;28;20052;-78
2022/01/24 01:29:15;;;;;;;20.35;10.63;;;;;;;1.27;89.27;100030.72;2630122;28;20498;-78
2022/01/24 01:30:39;;;;;;;22.63;10.93;;;;;;;1.23;89.22;100029.72;2629368;28;20598;-79
2022/01/24 01:33:23;;;;;;;21.15;10.80;;;;;;;1.19;89.40;100022.72;2628400;28;20135;-79
2022/01/24 01:36:24;;;;;;;23.55;11.05;;;;;;;1.18;89.48;100022.66;2629400;28;20040;-82
2022/01/24 01:38:02;;;;;;;19.27;9.23;;;;;;;1.18;89.61;100030.38;2628741;28;20048;-78
2022/01/24 01:52:25;;;;;;;26.00;10.80;;;;;;;1.19;90.09;100029.56;2629720;28;20466;-79
2022/01/24 01:54:08;;;;;;;22.35;11.00;;;;;;;1.20;89.77;100034.78;2629640;28;20043;-80
2022/01/24 01:55:40;;;;;;;22.23;10.73;;;;;;;1.24;89.85;100028.91;2629113;28;20056;-80
2022/01/24 01:56:57;;;;;;;25.73;11.60;;;;;;;1.26;89.94;100032.44;2629440;28;20051;-80
2022/01/24 01:58:18;;;;;;;24.08;11.35;;;;;;;1.28;89.55;100029.91;2619739;28;20055;-80
2022/01/24 01:59:34;;;;;;;25.23;12.25;;;;;;;1.28;89.49;100037.63;2624062;28;20051;-79
2022/01/24 02:00:55;;;;;;;27.33;12.32;;;;;;;1.28;89.64;100040.22;2629117;28;20053;-79
2022/01/24 02:02:12;;;;;;;24.65;12.35;;;;;;;1.27;89.38;100035.88;2630472;28;20414;-79
2022/01/24 02:03:28;;;;;;;21.35;11.73;;;;;;;1.27;89.39;100029.03;2628600;28;20381;-80
2022/01/24 02:04:44;;;;;;;23.80;11.70;;;;;;;1.30;89.46;100038.56;2628523;28;20063;-80
2022/01/24 02:06:00;;;;;;;25.23;11.40;;;;;;;1.31;89.39;100035.16;2627624;28;20050;-83
2022/01/24 02:07:17;;;;;;;23.60;11.93;;;;;;;1.29;89.26;100039.41;2628144;28;20513;-80
2022/01/24 02:08:33;;;;;;;22.17;11.23;;;;;;;1.28;89.07;100047.97;2617799;28;20456;-79
2022/01/24 02:09:49;;;;;;;27.75;13.48;;;;;;;1.31;89.34;100044.63;2622263;28;20447;-79
2022/01/24 02:11:04;;;;;;;23.00;12.63;;;;;;;1.31;89.16;100045.47;2627561;28;20048;-79
2022/01/24 02:12:24;;;;;;;24.10;12.10;;;;;;;1.32;89.24;100039.50;2629702;28;20052;-79
2022/01/24 02:13:40;;;;;;;22.00;11.15;;;;;;;1.33;89.22;100041.28;2629508;28;20040;-78
2022/01/24 02:14:59;;;;;;;24.40;11.82;;;;;;;1.30;89.25;100033.41;2628656;28;20096;-79
2022/01/24 02:16:26;;;;;;;25.15;12.10;;;;;;;1.31;89.10;100035.16;2628979;28;20044;-79
2022/01/24 02:18:00;;;;;;;24.10;11.95;;;;;;;1.31;89.12;100031.72;2628061;28;20779;-80
2022/01/24 02:19:34;;;;;;;24.45;11.75;;;;;;;1.31;89.24;100026.56;2628049;28;20044;-79
2022/01/24 02:22:28;;;;;;;25.33;11.38;;;;;;;1.32;89.12;100031.75;2630106;28;20126;-79
2022/01/24 02:23:46;;;;;;;20.55;11.10;;;;;;;1.32;89.06;100033.47;2629161;28;20092;-79
2022/01/24 02:25:11;;;;;;;26.08;12.13;;;;;;;1.25;89.19;100030.66;2630092;28;20044;-79
2022/01/24 02:26:26;;;;;;;23.73;11.65;;;;;;;1.23;89.16;100029.72;2628526;28;20048;-79
2022/01/24 02:27:46;;;;;;;24.25;11.55;;;;;;;1.21;89.37;100031.38;2629004;28;20540;-78
2022/01/24 02:29:22;;;;;;;21.10;10.00;;;;;;;1.19;89.35;100030.44;2628724;28;20047;-79
2022/01/24 02:32:12;;;;;;;19.38;8.90;;;;;;;1.19;89.34;100020.13;2628293;28;20071;-79
2022/01/24 02:33:28;;;;;;;19.65;10.02;;;;;;;1.18;89.54;100023.53;2629159;28;20044;-78
2022/01/24 02:34:46;;;;;;;19.75;9.75;;;;;;;1.15;89.45;100026.03;2630020;28;20051;-78
2022/01/24 02:36:02;;;;;;;22.88;10.88;;;;;;;1.12;89.39;100026.78;2628412;28;20571;-79
2022/01/24 02:37:19;;;;;;;22.60;10.52;;;;;;;1.10;89.70;100020.69;2630026;28;20066;-78
2022/01/24 02:40:21;;;;;;;23.02;10.60;;;;;;;1.06;89.92;100016.25;2589394;28;20651;-80
2022/01/24 02:49:33;;;;;;;20.80;9.90;;;;;;;1.04;90.10;100015.28;2627779;28;20044;-79
2022/01/24 02:52:14;;;;;;;23.88;10.93;;;;;;;1.06;89.97;100012.78;2629331;28;20882;-79
2022/01/24 02:53:31;;;;;;;21.50;9.50;;;;;;;1.08;89.95;100016.28;2628405;28;20075;-78
2022/01/24 02:54:48;;;;;;;22.27;10.10;;;;;;;1.10;89.91;100012.94;2629655;28;20039;-81
2022/01/24 02:56:04;;;;;;;22.77;10.45;;;;;;;1.11;89.98;100011.22;2630378;28;20094;-78
2022/01/24 02:57:20;;;;;;;21.38;9.52;;;;;;;1.13;89.98;100013.06;2628389;28;20500;-79
2022/01/24 02:58:36;;;;;;;20.38;10.73;;;;;;;1.14;89.76;100011.38;2627960;28;20098;-78
2022/01/24 02:59:51;;;;;;;23.15;10.63;;;;;;;1.16;89.63;100014.88;2628098;28;20439;-80
2022/01/24 03:01:07;;;;;;;21.38;10.10;;;;;;;1.14;89.62;100006.22;2627457;28;20044;-79
2022/01/24 03:02:23;;;;;;;21.02;9.57;;;;;;;1.13;89.63;100013.06;2629387;28;20048;-79
2022/01/24 03:03:40;;;;;;;20.95;9.23;;;;;;;1.13;89.62;100013.06;2628817;28;20403;-79
2022/01/24 03:04:57;;;;;;;20.23;8.68;;;;;;;1.13;89.55;100010.47;2628988;28;20422;-79
2022/01/24 03:06:12;;;;;;;16.77;9.00;;;;;;;1.13;89.43;100009.63;2629256;28;20429;-79
2022/01/24 03:07:30;;;;;;;15.68;8.38;;;;;;;1.11;89.76;100014.72;2627187;28;20056;-79
2022/01/24 03:08:46;;;;;;;16.88;8.60;;;;;;;1.12;89.71;100013.88;2628463;28;20047;-79
2022/01/24 03:10:11;;;;;;;16.50;7.82;;;;;;;1.13;89.49;100007.91;2628443;28;20082;-79
2022/01/24 03:11:38;;;;;;;16.33;8.48;;;;;;;1.17;89.50;100010.56;2630200;28;20071;-79
2022/01/24 03:13:37;;;;;;;16.23;7.95;;;;;;;1.18;89.29;100005.47;2617158;28;20298;-80
2022/01/24 03:14:36;;;;;;;17.42;7.43;;;;;;;1.17;89.36;100008.00;2618329;28;20150;-79
2022/01/24 03:15:55;;;;;;;15.63;7.60;;;;;;;1.12;89.39;100006.13;2628418;28;20040;-78
2022/01/24 03:17:10;;;;;;;17.00;8.15;;;;;;;1.13;89.53;100015.63;2629522;28;20486;-78
2022/01/24 03:18:27;;;;;;;19.60;8.57;;;;;;;1.12;89.48;100005.28;2628472;28;20060;-79
2022/01/24 03:19:43;;;;;;;16.30;8.05;;;;;;;1.11;89.31;100012.13;2629563;28;20048;-81
2022/01/24 03:20:58;;;;;;;16.77;8.32;;;;;;;1.12;89.51;100013.00;2630621;28;20077;-79
2022/01/24 03:22:14;;;;;;;16.95;8.27;;;;;;;1.15;89.36;100007.97;2628838;28;20044;-78
2022/01/24 03:23:30;;;;;;;19.40;8.80;;;;;;;1.13;89.44;100004.44;2628550;28;20051;-78
2022/01/24 03:24:46;;;;;;;18.33;8.88;;;;;;;1.14;89.43;100008.78;2629093;28;20052;-79
2022/01/24 03:26:01;;;;;;;19.27;9.18;;;;;;;1.12;89.26;100007.84;2627446;28;20039;-78
2022/01/24 03:27:17;;;;;;;17.92;8.15;;;;;;;1.11;89.36;100006.97;2629349;28;20070;-81
2022/01/24 03:28:33;;;;;;;19.88;8.60;;;;;;;1.10;89.39;100015.53;2630067;28;20052;-80
2022/01/24 03:29:48;;;;;;;17.38;8.65;;;;;;;1.11;89.42;100016.38;2627536;28;20159;-81
2022/01/24 03:31:04;;;;;;;17.92;8.63;;;;;;;1.09;89.64;100010.31;2631454;28;20591;-79
2022/01/24 03:32:19;;;;;;;20.73;9.40;;;;;;;1.07;89.64;100014.53;2629917;28;20421;-79
2022/01/24 03:33:35;;;;;;;17.63;8.50;;;;;;;1.06;89.66;100012.78;2628533;28;20521;-79
2022/01/24 03:34:50;;;;;;;17.15;8.70;;;;;;;1.07;89.85;100019.69;2630413;28;20448;-79
2022/01/24 03:36:06;;;;;;;18.60;9.10;;;;;;;1.08;89.78;100016.28;2620703;28;20413;-79
2022/01/24 03:37:22;;;;;;;19.98;8.95;;;;;;;1.07;89.67;100011.97;2624536;28;20044;-78
2022/01/24 03:38:37;;;;;;;17.13;8.18;;;;;;;1.08;89.60;100016.28;2630337;28;20044;-78
2022/01/24 03:39:53;;;;;;;19.10;9.18;;;;;;;1.07;89.81;100011.97;2630901;28;20067;-78
2022/01/24 03:41:09;;;;;;;18.73;8.55;;;;;;;1.07;89.87;100014.53;2628694;28;20043;-79
2022/01/24 03:42:24;;;;;;;16.38;7.72;;;;;;;1.05;89.93;100011.91;2629097;28;20047;-78
2022/01/24 03:43:40;;;;;;;14.95;7.82;;;;;;;1.02;90.06;100016.94;2630231;28;20059;-78
2022/01/24 03:44:59;;;;;;;16.88;8.30;;;;;;;1.02;89.90;100016.09;2630733;28;20063;-79
2022/01/24 03:46:48;;;;;;;17.20;8.15;;;;;;;1.02;89.89;100014.38;2629884;28;20044;-78
2022/01/24 03:48:07;;;;;;;19.17;8.23;;;;;;;1.02;89.83;100026.41;2628982;28;20071;-79
2022/01/24 03:50:58;;;;;;;15.15;7.05;;;;;;;1.04;90.01;100025.59;2630520;28;20059;-79
2022/01/24 03:52:16;;;;;;;18.30;8.52;;;;;;;1.05;89.84;100024.81;2630901;28;20917;-79
2022/01/24 03:53:31;;;;;;;15.93;7.88;;;;;;;1.08;89.78;100022.34;2630460;28;20048;-79
2022/01/24 03:54:49;;;;;;;16.77;8.40;;;;;;;1.11;89.85;100024.13;2630207;28;20052;-79
2022/01/24 03:56:06;;;;;;;16.25;7.90;;;;;;;1.12;89.73;100023.34;2629933;28;20048;-78
2022/01/24 03:57:21;;;;;;;16.40;7.93;;;;;;;1.15;89.63;100032.88;2629932;28;20044;-81
2022/01/24 03:58:37;;;;;;;18.33;8.20;;;;;;;1.17;89.58;100026.06;2630124;28;20044;-79
2022/01/24 03:59:53;;;;;;;17.60;7.95;;;;;;;1.17;89.40;100026.94;2629993;28;20098;-79
2022/01/24 04:01:10;;;;;;;17.40;7.95;;;;;;;1.16;89.57;100030.34;2630857;28;20040;-79
2022/01/24 04:02:27;;;;;;;19.83;9.10;;;;;;;1.14;89.58;100026.84;2628581;28;20056;-79
2022/01/24 04:03:43;;;;;;;20.60;8.82;;;;;;;1.13;89.42;100020.78;2630120;28;20430;-78
2022/01/24 04:04:59;;;;;;;19.70;8.65;;;;;;;1.11;89.58;100021.56;2630063;28;20044;-79
2022/01/24 04:06:15;;;;;;;18.70;8.15;;;;;;;1.13;89.66;100025.09;2629493;28;20048;-79
2022/01/24 04:07:31;;;;;;;17.40;8.77;;;;;;;1.13;89.64;100020.78;2629529;28;20048;-79
2022/01/24 04:08:46;;;;;;;19.10;8.88;;;;;;;1.14;89.58;100026.84;2630011;28;20487;-79
2022/01/24 04:10:07;;;;;;;19.10;8.85;;;;;;;1.13;89.37;100023.38;2630646;28;20040;-79
2022/01/24 04:11:23;;;;;;;19.90;9.32;;;;;;;1.15;89.31;100030.28;2630957;28;20549;-79
2022/01/24 04:12:40;;;;;;;19.02;8.15;;;;;;;1.15;89.40;100027.69;2631082;28;20120;-79
2022/01/24 04:14:09;;;;;;;16.60;7.88;;;;;;;1.15;89.30;100023.44;2630953;28;20087;-79
2022/01/24 04:17:22;;;;;;;17.35;8.10;;;;;;;1.11;89.48;100026.72;2630427;28;20055;-79
2022/01/24 04:21:47;;;;;;;16.05;7.78;;;;;;;1.05;89.59;100011.03;2629645;28;20567;-79
2022/01/24 04:23:03;;;;;;;16.63;7.70;;;;;;;1.05;89.58;100013.59;2629263;28;20081;-80
2022/01/24 04:24:22;;;;;;;16.05;7.53;;;;;;;1.07;89.53;100018.00;2630807;28;20130;-78
2022/01/24 04:25:38;;;;;;;15.93;7.38;;;;;;;1.10;89.50;100012.94;2630870;28;20479;-79
2022/01/24 04:26:53;;;;;;;15.70;7.28;;;;;;;1.12;89.45;100013.88;2630117;28;20044;-79
2022/01/24 04:28:10;;;;;;;16.25;7.78;;;;;;;1.11;89.50;100008.66;2629515;28;20048;-79
2022/01/24 04:29:25;;;;;;;16.35;7.97;;;;;;;1.13;89.60;100012.19;2629464;28;20059;-79
2022/01/24 04:30:41;;;;;;;15.25;8.02;;;;;;;1.15;89.46;100012.22;2630812;28;20414;-79
2022/01/24 04:31:57;;;;;;;15.20;7.85;;;;;;;1.17;89.36;100010.56;2631470;28;20525;-80
2022/01/24 04:33:12;;;;;;;15.55;8.13;;;;;;;1.19;89.33;100002.06;2630261;28;20035;-80
2022/01/24 04:34:28;;;;;;;18.25;8.45;;;;;;;1.21;89.21;100007.31;2628844;28;20051;-78
2022/01/24 04:35:44;;;;;;;15.82;7.82;;;;;;;1.22;89.18;100009.06;2630345;28;20046;-79
2022/01/24 04:36:59;;;;;;;13.57;7.68;;;;;;;1.18;89.37;100007.16;2630151;28;20505;-78
2022/01/24 04:38:15;;;;;;;19.75;7.93;;;;;;;1.13;89.50;100007.91;2630273;28;20051;-78
2022/01/24 04:39:31;;;;;;;16.40;8.18;;;;;;;1.12;89.64;100007.84;2628879;28;20059;-78
2022/01/24 04:40:47;;;;;;;19.65;8.32;;;;;;;1.13;89.34;100015.63;2628594;28;20395;-78
2022/01/24 04:42:09;;;;;;;18.48;8.63;;;;;;;1.13;89.45;100014.78;2628141;28;20065;-79
2022/01/24 04:45:21;;;;;;;16.30;8.48;;;;;;;1.07;89.79;100014.53;2630059;28;20044;-79
2022/01/24 04:51:10;;;;;;;18.83;8.95;;;;;;;1.04;89.97;100011.84;2628903;28;20048;-79
2022/01/24 04:52:36;;;;;;;18.23;8.13;;;;;;;1.06;89.87;100012.78;2630449;28;20060;-79
2022/01/24 04:54:40;;;;;;;17.17;7.82;;;;;;;1.06;89.98;100011.09;2618219;28;20924;-82
2022/01/24 04:55:27;;;;;;;14.60;7.68;;;;;;;1.05;89.84;100013.59;2614625;28;20449;-83
2022/01/24 04:56:43;;;;;;;17.38;8.57;;;;;;;1.03;89.80;100013.53;2629501;28;20043;-81
2022/01/24 04:57:59;;;;;;;16.92;7.68;;;;;;;1.03;90.01;100013.53;2629735;28;20055;-79
2022/01/24 04:59:14;;;;;;;16.20;7.88;;;;;;;1.03;90.04;100012.69;2629404;28;20040;-79
2022/01/24 05:00:30;;;;;;;15.07;7.82;;;;;;;1.03;89.72;100013.53;2630072;28;21036;-80
2022/01/24 05:01:45;;;;;;;16.10;7.63;;;;;;;1.04;90.00;100010.13;2629442;28;20133;-83
2022/01/24 05:03:01;;;;;;;14.23;7.55;;;;;;;1.03;90.07;100008.38;2630109;28;20041;-82
2022/01/24 05:04:17;;;;;;;15.95;8.05;;;;;;;1.05;89.93;100006.75;2631955;28;20051;-79
2022/01/24 05:05:33;;;;;;;17.02;8.43;;;;;;;1.11;89.76;100006.97;2630160;28;20069;-80
2022/01/24 05:06:48;;;;;;;14.07;7.53;;;;;;;1.13;89.71;100009.63;2629426;28;20050;-80
2022/01/24 05:08:06;;;;;;;18.45;8.27;;;;;;;1.15;89.53;100007.06;2628976;28;20502;-80
2022/01/24 05:09:22;;;;;;;15.02;7.50;;;;;;;1.16;89.49;100004.56;2628272;28;20094;-80
2022/01/24 05:10:51;;;;;;;12.88;6.60;;;;;;;1.18;89.36;100010.66;2629378;28;20058;-79
2022/01/24 05:12:26;;;;;;;14.20;7.13;;;;;;;1.21;89.31;100012.47;2630049;28;20096;-79
2022/01/24 05:24:23;;;;;;;19.70;9.27;;;;;;;1.08;89.67;100019.75;2630744;28;20066;-79
2022/01/24 05:25:39;;;;;;;19.73;9.38;;;;;;;1.07;89.80;100024.84;2628782;28;20474;-80
2022/01/24 05:26:55;;;;;;;17.15;8.95;;;;;;;1.03;89.99;100023.84;2628060;28;20420;-80
2022/01/24 05:28:10;;;;;;;19.83;9.85;;;;;;;1.05;89.90;100027.41;2629458;28;20051;-79
2022/01/24 05:29:27;;;;;;;19.63;9.68;;;;;;;1.06;90.01;100025.69;2630117;28;20135;-80
2022/01/24 05:30:43;;;;;;;21.25;9.50;;;;;;;1.09;89.88;100030.94;2630502;28;20044;-79
2022/01/24 05:31:58;;;;;;;21.75;9.60;;;;;;;1.07;89.87;100032.59;2628936;28;20044;-79
2022/01/24 05:33:14;;;;;;;18.27;9.23;;;;;;;1.07;89.89;100030.00;2630088;28;20040;-80
2022/01/24 05:34:30;;;;;;;20.50;9.73;;;;;;;1.06;89.69;100041.16;2629941;28;20083;-79
2022/01/24 05:35:46;;;;;;;19.90;9.23;;;;;;;1.06;89.81;100043.72;2628762;28;20300;-79
2022/01/24 05:37:02;;;;;;;18.35;9.30;;;;;;;1.06;89.93;100039.47;2630417;28;20050;-81
2022/01/24 05:38:17;;;;;;;19.10;8.85;;;;;;;1.08;89.70;100032.66;2629151;28;20043;-79
2022/01/24 05:39:33;;;;;;;18.42;8.82;;;;;;;1.11;89.69;100031.88;2629881;28;20491;-78
2022/01/24 05:40:49;;;;;;;16.83;7.93;;;;;;;1.13;89.41;100040.56;2629109;28;20052;-79
2022/01/24 05:42:05;;;;;;;17.30;7.95;;;;;;;1.15;89.32;100038.03;2628878;28;20094;-79
2022/01/24 05:43:21;;;;;;;16.73;7.72;;;;;;;1.18;89.12;100041.59;2629381;28;20044;-79
2022/01/24 05:44:37;;;;;;;16.88;8.15;;;;;;;1.19;88.98;100040.78;2629448;28;20086;-81
2022/01/24 05:45:52;;;;;;;15.75;7.85;;;;;;;1.21;89.08;100041.69;2631020;28;20043;-79
2022/01/24 05:47:08;;;;;;;13.13;7.43;;;;;;;1.23;89.12;100042.63;2628980;28;20059;-79
2022/01/24 05:48:24;;;;;;;16.52;7.70;;;;;;;1.24;88.95;100044.38;2629527;28;20055;-79
2022/01/24 05:49:39;;;;;;;13.05;7.60;;;;;;;1.25;88.89;100045.28;2629827;28;20036;-79
2022/01/24 05:50:55;;;;;;;15.27;7.88;;;;;;;1.26;89.03;100047.03;2629659;28;20422;-85
2022/01/24 05:52:11;;;;;;;16.63;8.13;;;;;;;1.27;88.82;100044.53;2629550;28;20105;-81
2022/01/24 05:53:26;;;;;;;16.25;7.22;;;;;;;1.27;88.91;100043.63;2629748;28;20059;-81
2022/01/24 05:54:42;;;;;;;14.75;8.00;;;;;;;1.28;88.95;100047.97;2630209;28;20048;-80
2022/01/24 05:55:59;;;;;;;13.02;7.20;;;;;;;1.27;88.87;100046.22;2630718;28;20101;-80
2022/01/24 05:57:15;;;;;;;14.88;7.47;;;;;;;1.26;88.80;100053.09;2629190;28;20494;-80
2022/01/24 05:58:30;;;;;;;15.77;8.13;;;;;;;1.24;88.81;100051.25;2628425;28;20082;-80
2022/01/24 05:59:46;;;;;;;13.88;7.03;;;;;;;1.21;88.92;100048.59;2629091;28;21887;-79
2022/01/24 06:01:02;;;;;;;14.60;7.38;;;;;;;1.20;89.12;100045.09;2628164;28;20513;-80
2022/01/24 06:02:17;;;;;;;14.52;7.93;;;;;;;1.24;89.10;100051.25;2628303;28;20132;-79
2022/01/24 06:03:33;;;;;;;14.50;6.57;;;;;;;1.24;89.07;100046.97;2628550;28;20044;-78
2022/01/24 06:04:49;;;;;;;14.27;7.30;;;;;;;1.24;89.03;100051.25;2629889;28;20048;-79
2022/01/24 06:06:07;;;;;;;14.93;7.80;;;;;;;1.24;88.98;100051.25;2627485;28;20086;-78
2022/01/24 06:07:23;;;;;;;13.57;7.45;;;;;;;1.23;88.83;100047.78;2629180;28;20079;-78
2022/01/24 06:08:38;;;;;;;15.75;8.02;;;;;;;1.20;88.90;100045.09;2628411;28;20110;-78
2022/01/24 06:09:54;;;;;;;12.68;7.28;;;;;;;1.13;89.24;100045.72;2629973;28;20539;-80
2022/01/24 06:11:10;;;;;;;16.65;7.32;;;;;;;1.06;89.64;100043.72;2629455;28;20077;-79
2022/01/24 06:12:26;;;;;;;16.15;7.45;;;;;;;1.02;89.89;100057.34;2630227;28;20554;-83
2022/01/24 06:13:45;;;;;;;14.50;7.95;;;;;;;0.99;90.03;100042.63;2628267;28;20072;-78
2022/01/24 06:15:03;;;;;;;14.00;7.43;;;;;;;1.00;89.88;100052.13;2629116;28;20044;-79
2022/01/24 06:16:19;;;;;;;17.73;8.85;;;;;;;1.02;89.83;100053.06;2627950;28;20564;-79
2022/01/24 06:17:34;;;;;;;16.10;8.10;;;;;;;1.03;89.87;100053.94;2628846;28;20047;-79
2022/01/24 06:18:50;;;;;;;13.95;7.47;;;;;;;1.02;90.03;100052.19;2629610;28;20051;-79
2022/01/24 06:20:06;;;;;;;17.02;7.75;;;;;;;0.99;90.05;100052.94;2627501;28;20040;-79
2022/01/24 06:21:22;;;;;;;19.35;8.68;;;;;;;0.96;90.19;100051.13;2628649;28;20517;-79
2022/01/24 06:22:40;;;;;;;15.68;7.95;;;;;;;0.95;90.29;100051.94;2628649;28;20079;-80
2022/01/24 06:23:55;;;;;;;14.50;7.28;;;;;;;0.95;90.36;100054.53;2628987;28;20105;-80
2022/01/24 06:25:13;;;;;;;17.02;7.35;;;;;;;0.95;90.34;100049.38;2630348;28;20486;-79
2022/01/24 06:26:29;;;;;;;17.90;7.38;;;;;;;0.96;90.30;100056.28;2628667;28;20048;-78
2022/01/24 06:27:45;;;;;;;16.35;7.43;;;;;;;0.95;90.27;100057.09;2626802;28;20055;-80
2022/01/24 06:29:00;;;;;;;14.85;6.88;;;;;;;0.93;90.48;100055.31;2629102;28;20039;-78
2022/01/24 06:30:16;;;;;;;14.00;6.68;;;;;;;0.92;90.39;100059.56;2628948;28;20052;-81
2022/01/24 06:31:32;;;;;;;14.95;6.82;;;;;;;0.94;90.41;100064.81;2629264;28;20052;-79
2022/01/24 06:32:48;;;;;;;16.92;7.72;;;;;;;0.95;90.61;100062.25;2630748;28;20052;-79
2022/01/24 06:34:05;;;;;;;16.52;8.02;;;;;;;0.97;90.53;100062.34;2628700;28;20134;-78
2022/01/24 06:35:20;;;;;;;16.35;7.90;;;;;;;0.98;90.37;100064.09;2628186;28;20039;-79
2022/01/24 06:36:36;;;;;;;16.90;7.82;;;;;;;0.98;90.26;100067.56;2628812;28;20116;-80
2022/01/24 06:37:51;;;;;;;14.45;7.47;;;;;;;1.01;90.48;100063.34;2629159;28;20056;-79
2022/01/24 06:39:10;;;;;;;15.93;7.68;;;;;;;1.03;90.32;100066.84;2627982;28;20048;-78
2022/01/24 06:40:25;;;;;;;15.18;7.78;;;;;;;1.05;90.22;100062.63;2628553;28;20044;-79
2022/01/24 06:41:43;;;;;;;17.33;8.48;;;;;;;1.08;90.08;100070.47;2629050;28;20406;-79
2022/01/24 06:42:59;;;;;;;18.05;8.20;;;;;;;1.09;90.07;100069.63;2628725;28;20071;-81
2022/01/24 06:44:14;;;;;;;13.85;7.35;;;;;;;1.08;89.84;100073.03;2627640;28;20414;-80
2022/01/24 06:45:30;;;;;;;14.88;8.20;;;;;;;1.08;90.13;100076.50;2618560;28;20052;-79
2022/01/24 06:46:45;;;;;;;15.52;7.97;;;;;;;1.08;90.08;100078.19;2623780;28;20314;-85
2022/01/24 06:48:01;;;;;;;15.27;7.60;;;;;;;1.06;90.13;100079.84;2628311;28;20052;-85
2022/01/24 06:49:17;;;;;;;16.88;7.85;;;;;;;1.08;90.11;100085.94;2628933;28;20059;-86
2022/01/24 06:50:33;;;;;;;16.65;7.68;;;;;;;1.10;90.22;100082.59;2628236;28;20048;-80
2022/01/24 06:51:48;;;;;;;16.35;8.15;;;;;;;1.13;90.25;100085.28;2627656;28;20051;-78
2022/01/24 06:53:04;;;;;;;15.52;7.65;;;;;;;1.16;89.91;100088.78;2627277;28;20111;-82
2022/01/24 06:54:20;;;;;;;15.85;8.02;;;;;;;1.18;89.95;100090.63;2629416;28;20123;-79
2022/01/24 06:55:35;;;;;;;14.55;8.00;;;;;;;1.19;89.64;100094.94;2628467;28;20044;-79
2022/01/24 06:56:51;;;;;;;16.00;8.02;;;;;;;1.22;89.17;100086.47;2628441;28;20040;-78
2022/01/24 06:58:06;;;;;;;16.63;8.60;;;;;;;1.23;89.63;100094.22;2629230;28;20035;-78
2022/01/24 06:59:22;;;;;;;17.25;8.57;;;;;;;1.25;89.19;100084.84;2628244;28;20044;-79
2022/01/24 07:00:37;;;;;;;14.75;7.82;;;;;;;1.26;89.35;100094.38;2628153;28;20784;-78
2022/01/24 07:01:53;;;;;;;13.57;7.10;;;;;;;1.27;89.25;100095.22;2629653;28;20396;-78
2022/01/24 07:03:09;;;;;;;13.93;7.93;;;;;;;1.27;89.39;100100.41;2628839;28;20054;-78
2022/01/24 07:04:24;;;;;;;16.30;7.47;;;;;;;1.30;89.28;100102.22;2628973;28;20126;-78
2022/01/24 07:05:40;;;;;;;15.35;7.82;;;;;;;1.29;89.31;100103.03;2630398;28;20040;-78
2022/01/24 07:06:55;;;;;;;18.40;8.65;;;;;;;1.29;89.41;100097.88;2629927;28;20459;-80
2022/01/24 07:08:11;;;;;;;17.85;8.90;;;;;;;1.29;89.10;100106.47;2630090;28;20118;-77
2022/01/24 07:09:27;;;;;;;18.77;9.02;;;;;;;1.27;89.18;100103.88;2630825;28;20611;-79
2022/01/24 07:10:42;;;;;;;17.95;8.63;;;;;;;1.26;89.33;100106.38;2632012;28;20040;-78
2022/01/24 07:11:58;;;;;;;17.08;8.95;;;;;;;1.26;89.22;100104.69;2619963;28;20579;-79
2022/01/24 07:13:14;;;;;;;20.02;10.07;;;;;;;1.26;89.08;100109.84;2624911;28;20051;-82
2022/01/24 07:14:30;;;;;;;15.75;8.48;;;;;;;1.24;89.53;100103.72;2630142;28;20056;-79
2022/01/24 07:15:53;;;;;;;15.60;8.52;;;;;;;1.24;89.21;100105.44;2630904;28;20384;-77
2022/01/24 07:17:30;;;;;;;20.40;9.10;;;;;;;1.24;89.38;100108.88;2631318;28;20071;-79
2022/01/24 07:18:58;;;;;;;15.82;8.27;;;;;;;1.25;89.43;100108.06;2628980;28;20104;-79
2022/01/24 07:20:16;;;;;;;19.27;8.93;;;;;;;1.30;89.33;100104.78;2630827;28;20048;-79
2022/01/24 07:21:32;;;;;;;19.02;9.38;;;;;;;1.30;89.42;100113.41;2631008;28;20101;-78
2022/01/24 07:22:47;;;;;;;22.00;11.88;;;;;;;1.30;89.78;100115.13;2630408;28;20070;-78
2022/01/24 07:24:03;;;;;;;24.00;11.90;;;;;;;1.32;89.79;100119.50;2630341;28;20055;-81
2022/01/24 07:25:21;;;;;;;25.25;11.57;;;;;;;1.43;89.66;100111.25;2629694;28;20063;-78
2022/01/24 07:26:37;;;;;;;20.67;10.27;;;;;;;1.43;89.15;100112.16;2626848;28;20135;-80
2022/01/24 07:27:52;;;;;;;19.02;10.75;;;;;;;1.44;89.08;100113.03;2627480;28;20441;-78